sensor_id;sensor_type;location;lat;lon;timestamp;pressure;altitude;pressure_sealevel;temperature
14666;BMP280;7420;53.574;10.040;2022-11-20T00:00:24;101224.41;;;1.70
14666;BMP280;7420;53.574;10.040;2022-11-20T00:02:50;101225.78;;;1.74
14666;BMP280;7420;53.574;10.040;2022-11-20T00:05:15;101227.88;;;1.71
14666;BMP280;7420;53.574;10.040;2022-11-20T00:07:40;101226.22;;;1.60
14666;BMP280;7420;53.574;10.040;2022-11-20T00:10:06;101219.72;;;1.64
14666;BMP280;7420;53.574;10.040;2022-11-20T00:12:31;101218.91;;;1.64
14666;BMP280;7420;53.574;10.040;2022-11-20T00:14:56;101214.50;;;1.64
14666;BMP280;7420;53.574;10.040;2022-11-20T00:17:21;101218.66;;;1.67
14666;BMP280;7420;53.574;10.040;2022-11-20T00:19:47;101211.47;;;1.59
14666;BMP280;7420;53.574;10.040;2022-11-20T00:22:12;101211.47;;;1.69
14666;BMP280;7420;53.574;10.040;2022-11-20T00:24:37;101216.03;;;1.67
14666;BMP280;7420;53.574;10.040;2022-11-20T00:27:02;101227.47;;;1.66
14666;BMP280;7420;53.574;10.040;2022-11-20T00:29:28;101225.41;;;1.60
14666;BMP280;7420;53.574;10.040;2022-11-20T00:31:53;101226.38;;;1.59
14666;BMP280;7420;53.574;10.040;2022-11-20T00:34:18;101216.56;;;1.61
14666;BMP280;7420;53.574;10.040;2022-11-20T00:36:43;101214.22;;;1.67
14666;BMP280;7420;53.574;10.040;2022-11-20T00:39:09;101218.91;;;1.64
14666;BMP280;7420;53.574;10.040;2022-11-20T00:41:34;101221.13;;;1.59
14666;BMP280;7420;53.574;10.040;2022-11-20T00:43:59;101214.22;;;1.67
14666;BMP280;7420;53.574;10.040;2022-11-20T00:46:25;101208.16;;;1.67
14666;BMP280;7420;53.574;10.040;2022-11-20T00:48:51;101208.00;;;1.68
14666;BMP280;7420;53.574;10.040;2022-11-20T00:51:18;101203.03;;;1.65
14666;BMP280;7420;53.574;10.040;2022-11-20T00:53:43;101210.91;;;1.56
14666;BMP280;7420;53.574;10.040;2022-11-20T00:56:10;101208.56;;;1.62
14666;BMP280;7420;53.574;10.040;2022-11-20T00:58:36;101208.16;;;1.67
14666;BMP280;7420;53.574;10.040;2022-11-20T01:01:06;101206.34;;;1.67
14666;BMP280;7420;53.574;10.040;2022-11-20T01:03:32;101205.25;;;1.60
14666;BMP280;7420;53.574;10.040;2022-11-20T01:06:01;101208.28;;;1.65
14666;BMP280;7420;53.574;10.040;2022-11-20T01:08:28;101208.16;;;1.67
14666;BMP280;7420;53.574;10.040;2022-11-20T01:10:58;101207.06;;;1.60
14666;BMP280;7420;53.574;10.040;2022-11-20T01:13:23;101207.88;;;1.60
14666;BMP280;7420;53.574;10.040;2022-11-20T01:18:35;101211.75;;;1.66
14666;BMP280;7420;53.574;10.040;2022-11-20T01:21:34;101210.09;;;1.65
14666;BMP280;7420;53.574;10.040;2022-11-20T01:23:52;101202.22;;;1.46
14666;BMP280;7420;53.574;10.040;2022-11-20T01:26:21;101193.81;;;1.52
14666;BMP280;7420;53.574;10.040;2022-11-20T01:28:47;101197.97;;;1.45
14666;BMP280;7420;53.574;10.040;2022-11-20T01:31:20;101189.44;;;1.52
14666;BMP280;7420;53.574;10.040;2022-11-20T01:33:46;101185.41;;;1.58
14666;BMP280;7420;53.574;10.040;2022-11-20T01:36:11;101185.56;;;1.56
14666;BMP280;7420;53.574;10.040;2022-11-20T01:38:37;101179.88;;;1.42
14666;BMP280;7420;53.574;10.040;2022-11-20T01:41:02;101182.94;;;1.47
14666;BMP280;7420;53.574;10.040;2022-11-20T01:43:28;101167.94;;;1.30
14666;BMP280;7420;53.574;10.040;2022-11-20T01:48:21;101168.03;;;1.38
14666;BMP280;7420;53.574;10.040;2022-11-20T01:50:47;101167.22;;;1.37
14666;BMP280;7420;53.574;10.040;2022-11-20T01:53:14;101175.91;;;1.38
14666;BMP280;7420;53.574;10.040;2022-11-20T01:55:48;101167.66;;;1.33
14666;BMP280;7420;53.574;10.040;2022-11-20T01:58:14;101165.41;;;1.38
14666;BMP280;7420;53.574;10.040;2022-11-20T02:00:40;101164.88;;;1.34
14666;BMP280;7420;53.574;10.040;2022-11-20T02:03:09;101157.03;;;1.34
14666;BMP280;7420;53.574;10.040;2022-11-20T02:08:04;101162.13;;;1.36
14666;BMP280;7420;53.574;10.040;2022-11-20T02:10:30;101154.41;;;1.34
14666;BMP280;7420;53.574;10.040;2022-11-20T02:12:56;101154.28;;;1.36
14666;BMP280;7420;53.574;10.040;2022-11-20T02:15:40;101159.53;;;1.36
14666;BMP280;7420;53.574;10.040;2022-11-20T02:18:06;101158.56;;;1.37
14666;BMP280;7420;53.574;10.040;2022-11-20T02:20:32;101157.56;;;1.38
14666;BMP280;7420;53.574;10.040;2022-11-20T02:25:45;101156.06;;;1.26
14666;BMP280;7420;53.574;10.040;2022-11-20T02:28:12;101137.88;;;1.34
14666;BMP280;7420;53.574;10.040;2022-11-20T02:30:37;101129.34;;;1.32
14666;BMP280;7420;53.574;10.040;2022-11-20T02:33:03;101148.63;;;1.31
14666;BMP280;7420;53.574;10.040;2022-11-20T02:37:54;101138.56;;;1.36
14666;BMP280;7420;53.574;10.040;2022-11-20T02:40:19;101140.78;;;1.31
14666;BMP280;7420;53.574;10.040;2022-11-20T02:42:45;101137.69;;;1.45
14666;BMP280;7420;53.574;10.040;2022-11-20T02:45:10;101138.53;;;1.45
14666;BMP280;7420;53.574;10.040;2022-11-20T02:47:36;101135.78;;;1.37
14666;BMP280;7420;53.574;10.040;2022-11-20T02:50:02;101129.84;;;1.45
14666;BMP280;7420;53.574;10.040;2022-11-20T02:52:28;101134.81;;;1.48
14666;BMP280;7420;53.574;10.040;2022-11-20T02:54:53;101122.41;;;1.40
14666;BMP280;7420;53.574;10.040;2022-11-20T02:57:18;101123.63;;;1.46
14666;BMP280;7420;53.574;10.040;2022-11-20T02:59:44;101125.28;;;1.47
14666;BMP280;7420;53.574;10.040;2022-11-20T03:02:09;101119.38;;;1.45
14666;BMP280;7420;53.574;10.040;2022-11-20T03:04:34;101128.75;;;1.47
14666;BMP280;7420;53.574;10.040;2022-11-20T03:06:59;101118.66;;;1.43
14666;BMP280;7420;53.574;10.040;2022-11-20T03:09:25;101113.44;;;1.43
14666;BMP280;7420;53.574;10.040;2022-11-20T03:11:50;101107.22;;;1.44
14666;BMP280;7420;53.574;10.040;2022-11-20T03:14:15;101117.31;;;1.48
14666;BMP280;7420;53.574;10.040;2022-11-20T03:16:40;101120.75;;;1.49
14666;BMP280;7420;53.574;10.040;2022-11-20T03:19:06;101123.09;;;1.42
14666;BMP280;7420;53.574;10.040;2022-11-20T03:21:34;101124.19;;;1.49
14666;BMP280;7420;53.574;10.040;2022-11-20T03:24:00;101117.44;;;1.47
14666;BMP280;7420;53.574;10.040;2022-11-20T03:26:26;101122.53;;;1.48
14666;BMP280;7420;53.574;10.040;2022-11-20T03:28:53;101117.28;;;1.39
14666;BMP280;7420;53.574;10.040;2022-11-20T03:31:20;101120.31;;;1.44
14666;BMP280;7420;53.574;10.040;2022-11-20T03:33:45;101123.91;;;1.43
14666;BMP280;7420;53.574;10.040;2022-11-20T03:36:11;101123.50;;;1.38
14666;BMP280;7420;53.574;10.040;2022-11-20T03:38:37;101114.84;;;1.37
14666;BMP280;7420;53.574;10.040;2022-11-20T03:41:03;101113.72;;;1.40
14666;BMP280;7420;53.574;10.040;2022-11-20T03:43:29;101119.63;;;1.42
14666;BMP280;7420;53.574;10.040;2022-11-20T03:45:55;101115.25;;;1.42
14666;BMP280;7420;53.574;10.040;2022-11-20T03:48:20;101112.22;;;1.37
14666;BMP280;7420;53.574;10.040;2022-11-20T03:50:45;101101.59;;;1.39
14666;BMP280;7420;53.574;10.040;2022-11-20T03:53:12;101114.69;;;1.39
14666;BMP280;7420;53.574;10.040;2022-11-20T03:55:37;101104.19;;;1.39
14666;BMP280;7420;53.574;10.040;2022-11-20T03:58:03;101094.41;;;1.41
14666;BMP280;7420;53.574;10.040;2022-11-20T04:00:29;101102.28;;;1.41
14666;BMP280;7420;53.574;10.040;2022-11-20T04:02:57;101098.69;;;1.42
14666;BMP280;7420;53.574;10.040;2022-11-20T04:05:22;101090.13;;;1.40
14666;BMP280;7420;53.574;10.040;2022-11-20T04:07:47;101090.13;;;1.40
14666;BMP280;7420;53.574;10.040;2022-11-20T04:10:13;101089.84;;;1.43
14666;BMP280;7420;53.574;10.040;2022-11-20T04:12:38;101095.38;;;1.40
14666;BMP280;7420;53.574;10.040;2022-11-20T04:15:03;101100.63;;;1.40
14666;BMP280;7420;53.574;10.040;2022-11-20T04:17:29;101099.38;;;1.44
14666;BMP280;7420;53.574;10.040;2022-11-20T04:19:54;101098.69;;;1.42
14666;BMP280;7420;53.574;10.040;2022-11-20T04:22:19;101089.59;;;1.36
14666;BMP280;7420;53.574;10.040;2022-11-20T04:24:44;101094.03;;;1.26
14666;BMP280;7420;53.574;10.040;2022-11-20T04:27:10;101089.91;;;1.24
14666;BMP280;7420;53.574;10.040;2022-11-20T04:29:35;101086.28;;;1.34
14666;BMP280;7420;53.574;10.040;2022-11-20T04:32:00;101086.72;;;1.30
14666;BMP280;7420;53.574;10.040;2022-11-20T04:34:25;101079.97;;;1.37
14666;BMP280;7420;53.574;10.040;2022-11-20T04:36:51;101080.66;;;1.29
14666;BMP280;7420;53.574;10.040;2022-11-20T04:39:16;101084.09;;;1.39
14666;BMP280;7420;53.574;10.040;2022-11-20T04:41:41;101087.69;;;1.29
14666;BMP280;7420;53.574;10.040;2022-11-20T04:44:07;101089.06;;;1.33
14666;BMP280;7420;53.574;10.040;2022-11-20T04:46:33;101084.38;;;1.36
14666;BMP280;7420;53.574;10.040;2022-11-20T04:48:59;101079.97;;;1.37
14666;BMP280;7420;53.574;10.040;2022-11-20T04:51:24;101068.50;;;1.38
14666;BMP280;7420;53.574;10.040;2022-11-20T04:53:50;101075.00;;;1.34
14666;BMP280;7420;53.574;10.040;2022-11-20T04:56:15;101075.69;;;1.36
14666;BMP280;7420;53.574;10.040;2022-11-20T04:58:41;101083.16;;;1.31
14666;BMP280;7420;53.574;10.040;2022-11-20T05:01:19;101078.59;;;1.33
14666;BMP280;7420;53.574;10.040;2022-11-20T05:03:45;101082.19;;;1.32
14666;BMP280;7420;53.574;10.040;2022-11-20T05:06:11;101079.00;;;1.28
14666;BMP280;7420;53.574;10.040;2022-11-20T05:08:37;101072.78;;;1.29
14666;BMP280;7420;53.574;10.040;2022-11-20T05:11:03;101064.81;;;1.31
14666;BMP280;7420;53.574;10.040;2022-11-20T05:13:29;101061.22;;;1.32
14666;BMP280;7420;53.574;10.040;2022-11-20T05:15:54;101051.84;;;1.29
14666;BMP280;7420;53.574;10.040;2022-11-20T05:18:20;101056.56;;;1.26
14666;BMP280;7420;53.574;10.040;2022-11-20T05:20:45;101057.22;;;1.28
14666;BMP280;7420;53.574;10.040;2022-11-20T05:23:10;101056.00;;;1.32
14666;BMP280;7420;53.574;10.040;2022-11-20T05:25:35;101057.34;;;1.26
14666;BMP280;7420;53.574;10.040;2022-11-20T05:28:00;101050.75;;;1.22
14666;BMP280;7420;53.574;10.040;2022-11-20T05:30:26;101047.44;;;1.20
14666;BMP280;7420;53.574;10.040;2022-11-20T05:32:51;101044.13;;;1.18
14666;BMP280;7420;53.574;10.040;2022-11-20T05:35:16;101040.31;;;1.13
14666;BMP280;7420;53.574;10.040;2022-11-20T05:37:41;101052.13;;;1.26
14666;BMP280;7420;53.574;10.040;2022-11-20T05:40:07;101036.28;;;1.18
14666;BMP280;7420;53.574;10.040;2022-11-20T05:42:32;101039.88;;;1.27
14666;BMP280;7420;53.574;10.040;2022-11-20T05:44:58;101038.50;;;1.23
14666;BMP280;7420;53.574;10.040;2022-11-20T05:47:24;101035.06;;;1.13
14666;BMP280;7420;53.574;10.040;2022-11-20T05:49:49;101026.25;;;1.14
14666;BMP280;7420;53.574;10.040;2022-11-20T05:52:15;101031.47;;;1.14
14666;BMP280;7420;53.574;10.040;2022-11-20T05:54:40;101026.53;;;1.11
14666;BMP280;7420;53.574;10.040;2022-11-20T05:57:05;101028.75;;;1.15
14666;BMP280;7420;53.574;10.040;2022-11-20T05:59:30;101029.25;;;1.19
14666;BMP280;7420;53.574;10.040;2022-11-20T06:01:56;101026.50;;;1.20
14666;BMP280;7420;53.574;10.040;2022-11-20T06:04:21;101021.41;;;1.19
14666;BMP280;7420;53.574;10.040;2022-11-20T06:06:46;101027.09;;;1.14
14666;BMP280;7420;53.574;10.040;2022-11-20T06:09:11;101027.91;;;1.15
14666;BMP280;7420;53.574;10.040;2022-11-20T06:11:37;101027.63;;;1.18
14666;BMP280;7420;53.574;10.040;2022-11-20T06:14:02;101032.84;;;1.18
14666;BMP280;7420;53.574;10.040;2022-11-20T06:16:27;101019.34;;;1.13
14666;BMP280;7420;53.574;10.040;2022-11-20T06:18:52;101016.34;;;1.17
14666;BMP280;7420;53.574;10.040;2022-11-20T06:21:19;101029.56;;;1.16
14666;BMP280;7420;53.574;10.040;2022-11-20T06:23:44;101034.78;;;1.16
14666;BMP280;7420;53.574;10.040;2022-11-20T06:26:11;101031.63;;;1.13
14666;BMP280;7420;53.574;10.040;2022-11-20T06:28:36;101031.88;;;1.19
14666;BMP280;7420;53.574;10.040;2022-11-20T06:31:02;101036.03;;;1.12
14666;BMP280;7420;53.574;10.040;2022-11-20T06:33:27;101028.75;;;1.15
14666;BMP280;7420;53.574;10.040;2022-11-20T06:35:55;101027.38;;;1.12
14666;BMP280;7420;53.574;10.040;2022-11-20T06:38:21;101037.00;;;1.11
14666;BMP280;7420;53.574;10.040;2022-11-20T06:40:46;101033.13;;;1.15
14666;BMP280;7420;53.574;10.040;2022-11-20T06:43:11;101026.81;;;1.17
14666;BMP280;7420;53.574;10.040;2022-11-20T06:45:36;101025.16;;;1.16
14666;BMP280;7420;53.574;10.040;2022-11-20T06:48:02;101027.34;;;1.21
14666;BMP280;7420;53.574;10.040;2022-11-20T06:50:27;101033.97;;;1.15
14666;BMP280;7420;53.574;10.040;2022-11-20T06:52:52;101021.97;;;1.13
14666;BMP280;7420;53.574;10.040;2022-11-20T06:55:18;101019.66;;;1.01
14666;BMP280;7420;53.574;10.040;2022-11-20T06:57:43;101018.13;;;1.08
14666;BMP280;7420;53.574;10.040;2022-11-20T07:00:08;101016.88;;;1.12
14666;BMP280;7420;53.574;10.040;2022-11-20T07:02:34;101016.34;;;1.08
14666;BMP280;7420;53.574;10.040;2022-11-20T07:04:59;101018.94;;;1.08
14666;BMP280;7420;53.574;10.040;2022-11-20T07:07:24;101024.06;;;1.10
14666;BMP280;7420;53.574;10.040;2022-11-20T07:09:50;101024.88;;;1.10
14666;BMP280;7420;53.574;10.040;2022-11-20T07:12:15;101030.50;;;1.15
14666;BMP280;7420;53.574;10.040;2022-11-20T07:14:40;101027.91;;;1.15
14666;BMP280;7420;53.574;10.040;2022-11-20T07:17:05;101030.09;;;1.10
14666;BMP280;7420;53.574;10.040;2022-11-20T07:19:31;101035.38;;;1.01
14666;BMP280;7420;53.574;10.040;2022-11-20T07:21:56;101024.06;;;1.10
14666;BMP280;7420;53.574;10.040;2022-11-20T07:24:21;101019.91;;;1.07
14666;BMP280;7420;53.574;10.040;2022-11-20T07:26:46;101020.75;;;1.08
14666;BMP280;7420;53.574;10.040;2022-11-20T07:29:14;101023.75;;;1.22
14666;BMP280;7420;53.574;10.040;2022-11-20T07:31:39;101033.50;;;1.29
14666;BMP280;7420;53.574;10.040;2022-11-20T07:34:04;101028.59;;;1.17
14666;BMP280;7420;53.574;10.040;2022-11-20T07:36:29;101017.81;;;1.20
14666;BMP280;7420;53.574;10.040;2022-11-20T07:38:55;101022.00;;;1.04
14666;BMP280;7420;53.574;10.040;2022-11-20T07:41:20;101021.97;;;1.13
14666;BMP280;7420;53.574;10.040;2022-11-20T07:43:45;101025.72;;;1.11
14666;BMP280;7420;53.574;10.040;2022-11-20T07:46:11;101028.19;;;1.03
14666;BMP280;7420;53.574;10.040;2022-11-20T07:48:36;101023.53;;;0.97
14666;BMP280;7420;53.574;10.040;2022-11-20T07:51:01;101030.72;;;0.85
14666;BMP280;7420;53.574;10.040;2022-11-20T07:53:26;101024.91;;;0.91
14666;BMP280;7420;53.574;10.040;2022-11-20T07:55:52;101028.31;;;1.01
14666;BMP280;7420;53.574;10.040;2022-11-20T07:58:17;101017.84;;;1.01
14666;BMP280;7420;53.574;10.040;2022-11-20T08:00:43;101017.84;;;1.11
14666;BMP280;7420;53.574;10.040;2022-11-20T08:03:08;101015.50;;;1.17
14666;BMP280;7420;53.574;10.040;2022-11-20T08:05:33;101013.16;;;1.14
14666;BMP280;7420;53.574;10.040;2022-11-20T08:07:58;101017.66;;;1.21
14666;BMP280;7420;53.574;10.040;2022-11-20T08:10:24;101016.59;;;1.24
14666;BMP280;7420;53.574;10.040;2022-11-20T08:12:50;101024.84;;;1.19
14666;BMP280;7420;53.574;10.040;2022-11-20T08:15:34;101023.75;;;1.22
14666;BMP280;7420;53.574;10.040;2022-11-20T08:18:11;101017.66;;;1.21
14666;BMP280;7420;53.574;10.040;2022-11-20T08:20:37;101019.59;;;1.19
14666;BMP280;7420;53.574;10.040;2022-11-20T08:23:03;101021.25;;;1.30
14666;BMP280;7420;53.574;10.040;2022-11-20T08:25:30;101023.88;;;1.30
14666;BMP280;7420;53.574;10.040;2022-11-20T08:27:59;101019.44;;;1.30
14666;BMP280;7420;53.574;10.040;2022-11-20T08:30:25;101037.25;;;1.27
14666;BMP280;7420;53.574;10.040;2022-11-20T08:32:50;101023.19;;;1.28
14666;BMP280;7420;53.574;10.040;2022-11-20T08:35:15;101028.03;;;1.23
14666;BMP280;7420;53.574;10.040;2022-11-20T08:37:40;101027.88;;;1.24
14666;BMP280;7420;53.574;10.040;2022-11-20T08:40:08;101023.97;;;1.38
14666;BMP280;7420;53.574;10.040;2022-11-20T08:42:33;101028.56;;;1.26
14666;BMP280;7420;53.574;10.040;2022-11-20T08:44:58;101033.13;;;1.15
14666;BMP280;7420;53.574;10.040;2022-11-20T08:47:24;101028.31;;;1.20
14666;BMP280;7420;53.574;10.040;2022-11-20T08:49:49;101032.28;;;1.24
14666;BMP280;7420;53.574;10.040;2022-11-20T08:52:14;101036.97;;;1.30
14666;BMP280;7420;53.574;10.040;2022-11-20T08:54:39;101040.78;;;1.45
14666;BMP280;7420;53.574;10.040;2022-11-20T08:57:05;101034.44;;;1.47
14666;BMP280;7420;53.574;10.040;2022-11-20T08:59:30;101037.47;;;1.43
14666;BMP280;7420;53.574;10.040;2022-11-20T09:01:56;101028.34;;;1.47
14666;BMP280;7420;53.574;10.040;2022-11-20T09:04:21;101034.63;;;1.63
14666;BMP280;7420;53.574;10.040;2022-11-20T09:06:46;101038.66;;;1.58
14666;BMP280;7420;53.574;10.040;2022-11-20T09:09:15;101045.03;;;1.55
14666;BMP280;7420;53.574;10.040;2022-11-20T09:11:41;101037.88;;;1.48
14666;BMP280;7420;53.574;10.040;2022-11-20T09:14:06;101035.00;;;1.41
14666;BMP280;7420;53.574;10.040;2022-11-20T09:16:31;101036.97;;;1.30
14666;BMP280;7420;53.574;10.040;2022-11-20T09:18:56;101032.97;;;1.26
14666;BMP280;7420;53.574;10.040;2022-11-20T09:21:22;101028.03;;;1.23
14666;BMP280;7420;53.574;10.040;2022-11-20T09:23:48;101035.63;;;1.16
14666;BMP280;7420;53.574;10.040;2022-11-20T09:26:14;101038.09;;;1.18
14666;BMP280;7420;53.574;10.040;2022-11-20T09:28:39;101033.09;;;1.24
14666;BMP280;7420;53.574;10.040;2022-11-20T09:31:08;101025.38;;;1.32
14666;BMP280;7420;53.574;10.040;2022-11-20T09:33:34;101036.69;;;1.33
14666;BMP280;7420;53.574;10.040;2022-11-20T09:35:59;101024.53;;;1.41
14666;BMP280;7420;53.574;10.040;2022-11-20T09:38:24;101023.41;;;1.44
14666;BMP280;7420;53.574;10.040;2022-11-20T09:40:54;101035.81;;;1.42
14666;BMP280;7420;53.574;10.040;2022-11-20T09:55:42;101037.19;;;1.46
14666;BMP280;7420;53.574;10.040;2022-11-20T09:58:13;101042.00;;;1.50
14666;BMP280;7420;53.574;10.040;2022-11-20T10:00:40;101037.28;;;1.54
14666;BMP280;7420;53.574;10.040;2022-11-20T10:03:11;101037.81;;;1.67
14666;BMP280;7420;53.574;10.040;2022-11-20T10:10:44;101039.88;;;1.63
14666;BMP280;7420;53.574;10.040;2022-11-20T10:13:14;101038.66;;;1.58
14666;BMP280;7420;53.574;10.040;2022-11-20T10:21:07;101023.38;;;2.07
14666;BMP280;7420;53.574;10.040;2022-11-20T10:26:31;101017.25;;;2.16
14666;BMP280;7420;53.574;10.040;2022-11-20T10:29:01;101020.63;;;2.09
14666;BMP280;7420;53.574;10.040;2022-11-20T10:33:56;101023.97;;;1.74
14666;BMP280;7420;53.574;10.040;2022-11-20T10:36:26;101019.41;;;1.76
14666;BMP280;7420;53.574;10.040;2022-11-20T10:38:59;101010.19;;;1.99
14666;BMP280;7420;53.574;10.040;2022-11-20T10:41:27;101017.06;;;2.00
14666;BMP280;7420;53.574;10.040;2022-11-20T10:46:34;101006.22;;;1.95
14666;BMP280;7420;53.574;10.040;2022-11-20T10:49:19;101001.13;;;1.94
14666;BMP280;7420;53.574;10.040;2022-11-20T10:54:35;101006.78;;;2.16
14666;BMP280;7420;53.574;10.040;2022-11-20T10:57:25;101007.97;;;2.39
14666;BMP280;7420;53.574;10.040;2022-11-20T11:02:52;101018.19;;;2.42
14666;BMP280;7420;53.574;10.040;2022-11-20T11:05:31;101008.06;;;2.29
14666;BMP280;7420;53.574;10.040;2022-11-20T11:07:57;101002.34;;;2.17
14666;BMP280;7420;53.574;10.040;2022-11-20T11:12:48;100991.97;;;1.98
14666;BMP280;7420;53.574;10.040;2022-11-20T11:15:59;100993.13;;;2.13
14666;BMP280;7420;53.574;10.040;2022-11-20T11:17:59;100991.41;;;2.04
14666;BMP280;7420;53.574;10.040;2022-11-20T11:20:25;100989.06;;;2.01
14666;BMP280;7420;53.574;10.040;2022-11-20T11:22:54;100987.66;;;2.06
14666;BMP280;7420;53.574;10.040;2022-11-20T11:27:52;100969.38;;;2.14
14666;BMP280;7420;53.574;10.040;2022-11-20T11:30:18;100978.50;;;2.10
14666;BMP280;7420;53.574;10.040;2022-11-20T11:32:44;100975.13;;;2.00
14666;BMP280;7420;53.574;10.040;2022-11-20T11:37:48;100976.53;;;1.95
14666;BMP280;7420;53.574;10.040;2022-11-20T11:40:14;100991.88;;;1.90
14666;BMP280;7420;53.574;10.040;2022-11-20T11:42:41;100979.84;;;1.97
14666;BMP280;7420;53.574;10.040;2022-11-20T11:45:07;100982.66;;;1.86
14666;BMP280;7420;53.574;10.040;2022-11-20T11:58:08;100971.00;;;1.98
14666;BMP280;7420;53.574;10.040;2022-11-20T12:00:35;100967.59;;;2.15
14666;BMP280;7420;53.574;10.040;2022-11-20T12:03:04;100982.94;;;2.10
14666;BMP280;7420;53.574;10.040;2022-11-20T12:05:40;100973.56;;;2.24
14666;BMP280;7420;53.574;10.040;2022-11-20T12:15:40;100974.25;;;2.26
14666;BMP280;7420;53.574;10.040;2022-11-20T12:18:15;100977.41;;;2.30
14666;BMP280;7420;53.574;10.040;2022-11-20T12:20:42;100974.16;;;2.19
14666;BMP280;7420;53.574;10.040;2022-11-20T12:25:35;100969.25;;;2.16
14666;BMP280;7420;53.574;10.040;2022-11-20T12:33:57;100949.16;;;2.41
14666;BMP280;7420;53.574;10.040;2022-11-20T12:52:48;100932.94;;;2.46
14666;BMP280;7420;53.574;10.040;2022-11-20T13:00:25;100927.25;;;2.76
14666;BMP280;7420;53.574;10.040;2022-11-20T13:05:21;100923.75;;;2.67
14666;BMP280;7420;53.574;10.040;2022-11-20T13:07:50;100935.25;;;2.66
14666;BMP280;7420;53.574;10.040;2022-11-20T13:10:21;100931.53;;;2.51
14666;BMP280;7420;53.574;10.040;2022-11-20T13:12:54;100921.53;;;2.55
14666;BMP280;7420;53.574;10.040;2022-11-20T13:18:08;100919.19;;;2.69
14666;BMP280;7420;53.574;10.040;2022-11-20T13:20:35;100921.81;;;2.69
14666;BMP280;7420;53.574;10.040;2022-11-20T13:23:01;100916.94;;;2.74
14666;BMP280;7420;53.574;10.040;2022-11-20T13:25:30;100920.59;;;2.81
14666;BMP280;7420;53.574;10.040;2022-11-20T13:27:56;100917.50;;;2.86
14666;BMP280;7420;53.574;10.040;2022-11-20T13:30:23;100915.13;;;3.00
14666;BMP280;7420;53.574;10.040;2022-11-20T13:35:23;100913.63;;;2.98
14666;BMP280;7420;53.574;10.040;2022-11-20T13:37:48;100908.94;;;2.84
14666;BMP280;7420;53.574;10.040;2022-11-20T13:40:24;100911.13;;;2.88
14666;BMP280;7420;53.574;10.040;2022-11-20T13:45:28;100912.28;;;2.68
14666;BMP280;7420;53.574;10.040;2022-11-20T13:47:53;100907.41;;;2.73
14666;BMP280;7420;53.574;10.040;2022-11-20T13:50:20;100910.47;;;2.86
14666;BMP280;7420;53.574;10.040;2022-11-20T13:52:55;100906.19;;;2.85
14666;BMP280;7420;53.574;10.040;2022-11-20T14:00:32;100897.81;;;2.64
14666;BMP280;7420;53.574;10.040;2022-11-20T14:05:36;100895.25;;;2.72
14666;BMP280;7420;53.574;10.040;2022-11-20T14:08:03;100887.56;;;2.71
14666;BMP280;7420;53.574;10.040;2022-11-20T14:10:29;100893.59;;;2.71
14666;BMP280;7420;53.574;10.040;2022-11-20T14:12:54;100884.41;;;2.67
14666;BMP280;7420;53.574;10.040;2022-11-20T14:15:30;100885.59;;;2.73
14666;BMP280;7420;53.574;10.040;2022-11-20T14:17:56;100880.72;;;2.60
14666;BMP280;7420;53.574;10.040;2022-11-20T14:20:22;100878.41;;;2.57
14666;BMP280;7420;53.574;10.040;2022-11-20T14:22:50;100875.47;;;2.60
14666;BMP280;7420;53.574;10.040;2022-11-20T14:27:42;100874.13;;;2.56
14666;BMP280;7420;53.574;10.040;2022-11-20T14:30:14;100871.06;;;2.61
14666;BMP280;7420;53.574;10.040;2022-11-20T14:32:40;100870.22;;;2.60
14666;BMP280;7420;53.574;10.040;2022-11-20T14:35:07;100871.38;;;2.58
14666;BMP280;7420;53.574;10.040;2022-11-20T14:37:35;100872.19;;;2.58
14666;BMP280;7420;53.574;10.040;2022-11-20T14:40:01;100874.97;;;2.57
14666;BMP280;7420;53.574;10.040;2022-11-20T14:42:27;100877.44;;;2.58
14666;BMP280;7420;53.574;10.040;2022-11-20T14:44:52;100871.50;;;2.56
14666;BMP280;7420;53.574;10.040;2022-11-20T14:47:26;100872.91;;;2.43
14666;BMP280;7420;53.574;10.040;2022-11-20T14:49:52;100874.59;;;2.52
14666;BMP280;7420;53.574;10.040;2022-11-20T14:52:22;100877.03;;;2.45
14666;BMP280;7420;53.574;10.040;2022-11-20T14:54:48;100869.84;;;2.47
14666;BMP280;7420;53.574;10.040;2022-11-20T14:57:21;100867.88;;;2.49
14666;BMP280;7420;53.574;10.040;2022-11-20T14:59:47;100873.81;;;2.51
14666;BMP280;7420;53.574;10.040;2022-11-20T15:02:12;100865.56;;;2.46
14666;BMP280;7420;53.574;10.040;2022-11-20T15:04:51;100862.56;;;2.41
14666;BMP280;7420;53.574;10.040;2022-11-20T15:07:27;100856.66;;;2.39
14666;BMP280;7420;53.574;10.040;2022-11-20T15:10:03;100857.94;;;2.35
14666;BMP280;7420;53.574;10.040;2022-11-20T15:12:30;100856.59;;;2.31
14666;BMP280;7420;53.574;10.040;2022-11-20T15:14:55;100858.59;;;2.37
14666;BMP280;7420;53.574;10.040;2022-11-20T15:17:20;100855.59;;;2.32
14666;BMP280;7420;53.574;10.040;2022-11-20T15:19:46;100850.38;;;2.32
14666;BMP280;7420;53.574;10.040;2022-11-20T15:22:11;100849.00;;;2.28
14666;BMP280;7420;53.574;10.040;2022-11-20T15:24:37;100844.59;;;2.29
14666;BMP280;7420;53.574;10.040;2022-11-20T15:27:03;100856.88;;;2.28
14666;BMP280;7420;53.574;10.040;2022-11-20T15:29:28;100842.44;;;2.24
14666;BMP280;7420;53.574;10.040;2022-11-20T15:31:53;100840.28;;;2.20
14666;BMP280;7420;53.574;10.040;2022-11-20T15:34:19;100841.31;;;2.27
14666;BMP280;7420;53.574;10.040;2022-11-20T15:36:44;100848.72;;;2.31
14666;BMP280;7420;53.574;10.040;2022-11-20T15:39:10;100835.91;;;2.28
14666;BMP280;7420;53.574;10.040;2022-11-20T15:41:36;100826.69;;;2.24
14666;BMP280;7420;53.574;10.040;2022-11-20T15:44:02;100831.63;;;2.27
14666;BMP280;7420;53.574;10.040;2022-11-20T15:46:29;100826.84;;;2.23
14666;BMP280;7420;53.574;10.040;2022-11-20T15:48:54;100819.28;;;2.20
14666;BMP280;7420;53.574;10.040;2022-11-20T15:51:30;100821.44;;;2.24
14666;BMP280;7420;53.574;10.040;2022-11-20T15:53:56;100825.94;;;2.32
14666;BMP280;7420;53.574;10.040;2022-11-20T15:56:21;100822.03;;;2.19
14666;BMP280;7420;53.574;10.040;2022-11-20T15:58:47;100825.22;;;2.22
14666;BMP280;7420;53.574;10.040;2022-11-20T16:01:13;100833.66;;;2.33
14666;BMP280;7420;53.574;10.040;2022-11-20T16:03:39;100826.09;;;2.30
14666;BMP280;7420;53.574;10.040;2022-11-20T16:06:04;100831.22;;;2.15
14666;BMP280;7420;53.574;10.040;2022-11-20T16:08:30;100818.44;;;2.20
14666;BMP280;7420;53.574;10.040;2022-11-20T16:10:55;100814.53;;;2.23